createdAt,value
2023-03-30T00:01:19.475Z,17.60
2023-03-30T00:03:50.223Z,13.70
2023-03-30T00:06:23.326Z,16.02
2023-03-30T00:08:53.574Z,14.30
2023-03-30T00:11:23.748Z,14.18
2023-03-30T00:13:54.920Z,17.45
2023-03-30T00:16:26.040Z,17.73
2023-03-30T00:18:55.929Z,14.63
2023-03-30T00:21:27.074Z,14.25
2023-03-30T00:23:56.802Z,14.48
2023-03-30T00:26:24.166Z,16.63
2023-03-30T00:28:51.451Z,13.98
2023-03-30T00:31:18.893Z,15.27
2023-03-30T00:33:47.508Z,15.73
2023-03-30T00:36:16.503Z,13.93
2023-03-30T00:38:48.406Z,15.05
2023-03-30T00:41:16.374Z,14.25
2023-03-30T00:44:07.392Z,15.48
2023-03-30T00:46:34.803Z,13.88
2023-03-30T00:49:12.272Z,14.13
2023-03-30T00:51:42.592Z,14.40
2023-03-30T00:54:19.168Z,15.48
2023-03-30T00:56:49.200Z,15.00
2023-03-30T00:59:18.794Z,13.98
2023-03-30T01:01:50.480Z,13.40
2023-03-30T01:06:47.124Z,17.02
2023-03-30T01:09:16.528Z,15.23
2023-03-30T01:11:44.190Z,13.45
2023-03-30T01:14:15.527Z,16.88
2023-03-30T01:17:13.673Z,14.30
2023-03-30T01:19:58.957Z,14.70
2023-03-30T01:23:02.365Z,14.38
2023-03-30T01:25:47.892Z,14.18
2023-03-30T01:28:29.954Z,13.30
2023-03-30T01:31:14.897Z,14.57
2023-03-30T01:33:57.919Z,16.42
2023-03-30T01:36:41.728Z,14.35
2023-03-30T01:39:16.935Z,19.30
2023-03-30T01:41:59.098Z,17.00
2023-03-30T01:44:32.557Z,16.90
2023-03-30T01:47:17.658Z,15.75
2023-03-30T01:50:12.880Z,16.15
2023-03-30T01:52:53.894Z,16.15
2023-03-30T01:55:29.373Z,15.07
2023-03-30T01:58:14.674Z,17.48
2023-03-30T02:00:45.147Z,14.02
2023-03-30T02:03:17.473Z,14.43
2023-03-30T02:05:47.085Z,15.15
2023-03-30T02:08:18.953Z,15.75
2023-03-30T02:10:49.590Z,14.63
2023-03-30T02:13:19.225Z,14.52
2023-03-30T02:15:53.152Z,14.75
2023-03-30T02:18:23.528Z,14.73
2023-03-30T02:20:50.947Z,17.00
2023-03-30T02:23:21.456Z,17.23
2023-03-30T02:25:49.492Z,14.55
2023-03-30T02:28:17.107Z,15.65
2023-03-30T02:30:47.152Z,15.63
2023-03-30T02:33:26.062Z,15.35
2023-03-30T02:35:58.777Z,17.70
2023-03-30T02:38:44.329Z,15.75
2023-03-30T02:41:32.717Z,17.67
2023-03-30T02:43:59.959Z,16.45
2023-03-30T02:46:44.574Z,16.63
2023-03-30T02:49:40.724Z,15.50
2023-03-30T02:52:40.048Z,14.85
2023-03-30T02:55:10.586Z,14.80
2023-03-30T02:57:37.917Z,15.25
2023-03-30T03:00:24.038Z,16.25
2023-03-30T03:03:02.582Z,15.32
2023-03-30T03:05:33.968Z,15.13
2023-03-30T03:08:01.587Z,16.67
2023-03-30T03:10:28.836Z,14.82
2023-03-30T03:12:58.498Z,14.52
2023-03-30T03:15:25.813Z,16.35
2023-03-30T03:17:53.170Z,13.43
2023-03-30T03:20:20.521Z,14.65
2023-03-30T03:22:49.904Z,16.02
2023-03-30T03:25:19.609Z,14.45
2023-03-30T03:27:47.319Z,12.93
2023-03-30T03:30:14.786Z,13.90
2023-03-30T03:32:42.088Z,13.98
2023-03-30T03:35:09.959Z,13.63
2023-03-30T03:37:37.247Z,15.82
2023-03-30T03:40:06.543Z,12.50
2023-03-30T03:42:34.066Z,13.18
2023-03-30T03:45:01.361Z,14.70
2023-03-30T03:47:28.833Z,12.75
2023-03-30T03:49:56.160Z,14.95
2023-03-30T03:52:23.652Z,13.98
2023-03-30T03:54:53.369Z,12.70
2023-03-30T03:57:23.069Z,15.57
2023-03-30T03:59:52.097Z,15.00
2023-03-30T04:02:21.250Z,15.63
2023-03-30T04:04:51.778Z,16.80
2023-03-30T04:07:21.685Z,15.05
2023-03-30T04:09:48.932Z,13.32
2023-03-30T04:12:16.257Z,13.77
2023-03-30T04:14:43.657Z,13.93
2023-03-30T04:17:11.797Z,14.57
2023-03-30T04:19:39.495Z,14.35
2023-03-30T04:22:06.948Z,16.50
2023-03-30T04:24:35.572Z,13.77
2023-03-30T04:27:03.333Z,20.98
2023-03-30T04:29:30.831Z,18.63
2023-03-30T04:32:02.962Z,16.88
2023-03-30T04:34:31.047Z,15.32
2023-03-30T04:37:03.923Z,15.25
2023-03-30T04:39:31.377Z,15.05
2023-03-30T04:41:58.681Z,14.57
2023-03-30T04:44:26.103Z,15.73
2023-03-30T04:46:55.305Z,14.73
2023-03-30T04:49:25.800Z,15.70
2023-03-30T04:51:54.683Z,14.57
2023-03-30T04:54:24.216Z,14.25
2023-03-30T04:56:51.639Z,17.38
2023-03-30T04:59:19.023Z,15.73
2023-03-30T05:01:49.330Z,16.08
2023-03-30T05:04:16.663Z,15.18
2023-03-30T05:06:44.322Z,15.15
2023-03-30T05:09:14.373Z,15.68
2023-03-30T05:11:41.701Z,14.63
2023-03-30T05:14:11.746Z,17.10
2023-03-30T05:16:39.102Z,17.77
2023-03-30T05:19:06.509Z,14.35
2023-03-30T05:21:36.126Z,15.20
2023-03-30T05:24:04.135Z,16.02
2023-03-30T05:26:34.855Z,14.82
2023-03-30T05:29:02.415Z,16.87
2023-03-30T05:31:35.036Z,16.23
2023-03-30T05:34:02.771Z,15.40
2023-03-30T05:36:30.103Z,16.70
2023-03-30T05:38:57.423Z,15.77
2023-03-30T05:41:24.927Z,18.60
2023-03-30T05:43:54.496Z,20.33
2023-03-30T05:46:22.821Z,21.02
2023-03-30T05:48:50.290Z,21.38
2023-03-30T05:51:20.017Z,16.75
2023-03-30T05:53:47.446Z,18.45
2023-03-30T05:56:17.672Z,16.15
2023-03-30T05:58:44.979Z,16.05
2023-03-30T06:01:13.427Z,18.02
2023-03-30T06:03:42.201Z,16.88
2023-03-30T06:06:09.994Z,19.70
2023-03-30T06:08:37.365Z,15.55
2023-03-30T06:11:07.921Z,20.33
2023-03-30T06:13:37.307Z,19.25
2023-03-30T06:16:07.988Z,19.20
2023-03-30T06:18:35.299Z,19.65
2023-03-30T06:21:07.197Z,18.35
2023-03-30T06:23:37.214Z,17.83
2023-03-30T06:26:09.723Z,16.23
2023-03-30T06:28:39.228Z,17.38
2023-03-30T06:31:12.479Z,17.05
2023-03-30T06:33:41.692Z,17.50
2023-03-30T06:36:14.952Z,16.38
2023-03-30T06:38:45.340Z,17.48
2023-03-30T06:41:12.911Z,16.27
2023-03-30T06:43:40.363Z,17.80
2023-03-30T06:46:08.248Z,18.35
2023-03-30T06:48:40.147Z,17.80
2023-03-30T06:53:34.998Z,17.23
2023-03-30T06:56:02.283Z,18.27
2023-03-30T06:58:30.673Z,19.92
2023-03-30T07:00:58.100Z,43.30
2023-03-30T07:03:26.568Z,49.58
2023-03-30T07:05:54.030Z,33.75
2023-03-30T07:08:26.748Z,23.80
2023-03-30T07:10:54.047Z,21.05
2023-03-30T07:13:21.766Z,20.77
2023-03-30T07:15:49.002Z,21.90
2023-03-30T07:18:18.875Z,22.30
2023-03-30T07:20:46.822Z,20.48
2023-03-30T07:23:16.647Z,19.35
2023-03-30T07:25:45.756Z,22.52
2023-03-30T07:28:14.058Z,20.58
2023-03-30T07:30:41.640Z,21.67
2023-03-30T07:33:11.623Z,20.60
2023-03-30T07:35:47.022Z,20.35
2023-03-30T07:38:14.993Z,18.73
2023-03-30T07:40:42.450Z,20.05
2023-03-30T07:43:09.720Z,21.40
2023-03-30T07:45:39.525Z,20.50
2023-03-30T07:48:07.003Z,25.23
2023-03-30T07:50:34.699Z,23.10
2023-03-30T07:53:02.006Z,36.55
2023-03-30T07:55:30.047Z,30.25
2023-03-30T07:57:59.965Z,28.10
2023-03-30T08:00:27.927Z,23.75
2023-03-30T08:02:57.837Z,24.70
2023-03-30T08:05:25.138Z,22.27
2023-03-30T08:07:53.016Z,26.33
2023-03-30T08:10:22.510Z,29.25
2023-03-30T08:12:49.884Z,26.40
2023-03-30T08:15:17.228Z,23.90
2023-03-30T08:17:44.604Z,22.08
2023-03-30T08:20:15.939Z,24.65
2023-03-30T08:22:45.775Z,23.52
2023-03-30T08:25:13.170Z,24.00
2023-03-30T08:27:40.472Z,22.73
2023-03-30T08:30:08.365Z,22.30
2023-03-30T08:32:37.919Z,24.40
2023-03-30T08:35:06.403Z,23.02
2023-03-30T08:37:33.662Z,24.40
2023-03-30T08:40:06.445Z,23.42
2023-03-30T08:42:48.930Z,23.20
2023-03-30T08:45:18.801Z,38.80
2023-03-30T08:47:50.485Z,43.55
2023-03-30T08:52:52.181Z,30.02
2023-03-30T08:55:40.689Z,28.83
2023-03-30T08:58:17.549Z,27.58
2023-03-30T09:01:00.110Z,30.65
2023-03-30T09:03:39.269Z,26.48
2023-03-30T09:06:28.482Z,29.23
2023-03-30T09:08:58.708Z,35.55
2023-03-30T09:11:45.698Z,28.80
2023-03-30T09:14:25.840Z,26.15
2023-03-30T09:17:02.520Z,24.02
2023-03-30T09:19:40.441Z,22.60
2023-03-30T09:22:12.993Z,22.20
2023-03-30T09:24:44.981Z,24.88
2023-03-30T09:27:27.749Z,21.63
2023-03-30T09:29:58.319Z,25.17
2023-03-30T09:32:33.157Z,26.83
2023-03-30T09:35:11.056Z,21.77
2023-03-30T09:37:38.453Z,24.95
2023-03-30T09:40:17.744Z,24.63
2023-03-30T09:43:24.095Z,25.90
2023-03-30T09:45:53.801Z,21.90
2023-03-30T09:48:21.294Z,20.50
2023-03-30T09:50:48.638Z,23.15
2023-03-30T09:53:25.139Z,20.45
2023-03-30T09:56:23.034Z,21.90
2023-03-30T09:58:50.574Z,19.25
2023-03-30T10:01:24.253Z,25.20
2023-03-30T10:04:16.506Z,19.33
2023-03-30T10:06:53.513Z,21.42
2023-03-30T10:09:24.081Z,21.63
2023-03-30T10:11:54.550Z,19.55
2023-03-30T10:14:28.781Z,18.65
2023-03-30T10:16:59.041Z,17.50
2023-03-30T10:19:26.765Z,16.00
2023-03-30T10:22:04.314Z,18.95
2023-03-30T10:24:33.303Z,19.02
2023-03-30T10:27:19.676Z,16.42
2023-03-30T10:29:50.789Z,17.63
2023-03-30T10:32:21.796Z,18.15
2023-03-30T10:34:58.372Z,15.35
2023-03-30T10:37:32.404Z,18.90
2023-03-30T10:40:02.405Z,15.48
2023-03-30T10:42:32.927Z,14.75
2023-03-30T10:45:04.402Z,18.88
2023-03-30T10:47:50.787Z,17.52
2023-03-30T10:50:28.110Z,18.00
2023-03-30T10:53:19.651Z,16.98
2023-03-30T10:56:14.538Z,16.85
2023-03-30T10:59:06.866Z,17.00
2023-03-30T11:01:53.152Z,16.75
2023-03-30T11:04:40.264Z,19.30
2023-03-30T11:07:41.737Z,20.23
2023-03-30T11:10:22.192Z,24.00
2023-03-30T11:13:03.084Z,23.65
2023-03-30T11:15:33.482Z,24.67
2023-03-30T11:18:10.719Z,21.65
2023-03-30T11:20:46.039Z,21.40
2023-03-30T11:23:34.778Z,21.38
2023-03-30T11:26:09.853Z,20.27
2023-03-30T11:28:52.968Z,25.35
2023-03-30T11:31:38.292Z,22.83
2023-03-30T11:34:41.226Z,22.90
2023-03-30T11:37:35.413Z,22.65
2023-03-30T11:40:26.833Z,18.90
2023-03-30T11:42:58.629Z,20.02
2023-03-30T11:48:21.173Z,22.02
2023-03-30T11:51:26.819Z,20.85
2023-03-30T11:54:15.095Z,36.55
2023-03-30T11:56:48.175Z,22.05
2023-03-30T11:59:39.795Z,21.08
2023-03-30T12:02:28.261Z,16.17
2023-03-30T12:05:11.289Z,18.65
2023-03-30T12:08:19.356Z,17.95
2023-03-30T12:10:54.915Z,16.98
2023-03-30T12:13:22.176Z,19.20
2023-03-30T12:16:00.675Z,21.52
2023-03-30T12:18:30.986Z,15.23
2023-03-30T12:21:19.029Z,16.35
2023-03-30T12:24:01.104Z,16.40
2023-03-30T12:26:31.037Z,15.25
2023-03-30T12:31:58.843Z,16.93
2023-03-30T12:34:28.300Z,16.33
2023-03-30T12:37:23.539Z,16.88
2023-03-30T12:40:06.754Z,16.65
2023-03-30T12:42:46.357Z,16.52
2023-03-30T12:45:32.112Z,14.70
2023-03-30T12:48:05.433Z,12.95
2023-03-30T12:50:36.211Z,14.35
2023-03-30T12:53:35.798Z,16.08
2023-03-30T12:56:26.453Z,18.05
2023-03-30T12:59:23.550Z,18.83
2023-03-30T13:02:12.334Z,14.18
2023-03-30T13:04:44.057Z,16.83
2023-03-30T13:07:27.420Z,17.55
2023-03-30T13:09:57.883Z,14.20
2023-03-30T13:12:31.509Z,14.88
2023-03-30T13:15:04.410Z,15.82
2023-03-30T13:17:51.059Z,15.05
2023-03-30T13:20:29.893Z,15.90
2023-03-30T13:23:25.001Z,15.20
2023-03-30T13:26:03.480Z,17.77
2023-03-30T13:28:59.388Z,17.05
2023-03-30T13:31:41.432Z,16.88
2023-03-30T13:34:31.102Z,16.65
2023-03-30T13:37:16.789Z,15.15
2023-03-30T13:39:52.801Z,17.30
2023-03-30T13:42:35.140Z,17.27
2023-03-30T13:45:30.837Z,14.90
2023-03-30T13:48:24.865Z,16.52
2023-03-30T13:51:03.083Z,18.95
2023-03-30T13:53:41.822Z,20.58
2023-03-30T13:56:13.411Z,17.95
2023-03-30T14:01:19.197Z,10.18
2023-03-30T14:03:57.623Z,8.35
2023-03-30T14:06:29.948Z,8.95
2023-03-30T14:09:12.377Z,9.55
2023-03-30T14:11:46.978Z,7.75
2023-03-30T14:14:23.146Z,9.32
2023-03-30T14:16:51.394Z,9.68
2023-03-30T14:19:28.168Z,12.18
2023-03-30T14:22:02.195Z,7.03
2023-03-30T14:24:36.514Z,7.32
2023-03-30T14:27:15.803Z,6.00
2023-03-30T14:29:50.199Z,8.55
2023-03-30T14:32:21.481Z,7.18
2023-03-30T14:34:53.768Z,9.82
2023-03-30T14:37:25.813Z,16.60
2023-03-30T14:39:57.464Z,8.85
2023-03-30T14:42:30.979Z,8.00
2023-03-30T14:44:58.465Z,9.55
2023-03-30T14:47:27.888Z,6.43
2023-03-30T14:50:01.982Z,5.55
2023-03-30T14:52:40.931Z,5.05
2023-03-30T14:55:17.572Z,4.97
2023-03-30T14:57:49.708Z,6.70
2023-03-30T15:00:22.832Z,5.95
2023-03-30T15:02:56.976Z,5.07
2023-03-30T15:05:30.257Z,4.20
2023-03-30T15:07:57.629Z,4.10
2023-03-30T15:10:36.809Z,5.50
2023-03-30T15:13:08.195Z,2.25
2023-03-30T15:15:35.861Z,4.15
2023-03-30T15:18:04.611Z,4.43
2023-03-30T15:20:32.512Z,4.95
2023-03-30T15:23:00.782Z,6.53
2023-03-30T15:25:35.180Z,3.10
2023-03-30T15:28:07.021Z,3.17
2023-03-30T15:30:38.447Z,5.63
2023-03-30T15:33:07.483Z,3.88
2023-03-30T15:35:37.163Z,6.28
2023-03-30T15:38:13.304Z,4.13
2023-03-30T15:40:43.050Z,5.57
2023-03-30T15:43:22.336Z,5.97
2023-03-30T15:46:09.079Z,3.67
2023-03-30T15:48:47.041Z,4.05
2023-03-30T15:51:21.138Z,3.20
2023-03-30T15:53:55.633Z,5.28
2023-03-30T15:56:56.444Z,5.25
2023-03-30T15:59:31.972Z,3.33
2023-03-30T16:02:15.129Z,5.35
2023-03-30T16:04:44.984Z,3.97
2023-03-30T16:07:21.328Z,5.28
2023-03-30T16:09:49.220Z,4.80
2023-03-30T16:12:19.967Z,5.43
2023-03-30T16:14:48.208Z,5.03
2023-03-30T16:17:18.074Z,6.55
2023-03-30T16:19:46.107Z,6.90
2023-03-30T16:22:17.960Z,7.10
2023-03-30T16:24:48.340Z,7.07
2023-03-30T16:27:15.668Z,6.57
2023-03-30T16:29:45.929Z,7.00
2023-03-30T16:32:13.191Z,6.05
2023-03-30T16:34:42.928Z,6.22
2023-03-30T16:37:11.395Z,4.72
2023-03-30T16:39:41.116Z,6.75
2023-03-30T16:42:08.372Z,4.55
2023-03-30T16:44:36.436Z,4.65
2023-03-30T16:47:03.896Z,6.30
2023-03-30T16:49:31.234Z,4.35
2023-03-30T16:51:58.591Z,3.45
2023-03-30T16:54:32.625Z,3.53
2023-03-30T16:57:03.520Z,4.47
2023-03-30T16:59:32.889Z,3.70
2023-03-30T17:02:00.371Z,4.97
2023-03-30T17:04:30.063Z,5.93
2023-03-30T17:06:59.888Z,3.25
2023-03-30T17:09:27.207Z,3.25
2023-03-30T17:11:54.445Z,3.70
2023-03-30T17:14:23.269Z,3.90
2023-03-30T17:16:53.191Z,3.75
2023-03-30T17:19:20.560Z,5.18
2023-03-30T17:21:50.355Z,3.83
2023-03-30T17:24:17.682Z,3.42
2023-03-30T17:26:47.469Z,3.70
2023-03-30T17:29:14.861Z,4.03
2023-03-30T17:31:45.875Z,2.80
2023-03-30T17:34:13.925Z,4.38
2023-03-30T17:36:43.399Z,2.42
2023-03-30T17:39:18.189Z,2.33
2023-03-30T17:41:45.474Z,4.95
2023-03-30T17:44:12.793Z,2.33
2023-03-30T17:46:42.864Z,4.07
2023-03-30T17:49:19.561Z,6.43
2023-03-30T17:51:49.689Z,4.15
2023-03-30T17:54:17.044Z,4.50
2023-03-30T17:56:46.803Z,6.25
2023-03-30T17:59:14.155Z,4.18
2023-03-30T18:01:41.585Z,3.95
2023-03-30T18:04:09.269Z,5.35
2023-03-30T18:06:36.720Z,3.92
2023-03-30T18:09:04.105Z,4.25
2023-03-30T18:11:31.375Z,4.68
2023-03-30T18:13:58.654Z,3.97
2023-03-30T18:16:26.327Z,5.18
2023-03-30T18:18:53.714Z,4.20
2023-03-30T18:21:21.239Z,4.38
2023-03-30T18:23:53.061Z,4.80
2023-03-30T18:26:21.282Z,3.38
2023-03-30T18:28:48.575Z,5.25
2023-03-30T18:31:18.778Z,4.20
2023-03-30T18:33:46.075Z,5.53
2023-03-30T18:36:14.720Z,4.32
2023-03-30T18:38:44.346Z,4.20
2023-03-30T18:41:12.946Z,4.80
2023-03-30T18:43:42.551Z,5.22
2023-03-30T18:46:12.605Z,7.32
2023-03-30T18:48:40.098Z,3.80
2023-03-30T18:51:09.547Z,3.88
2023-03-30T18:53:39.336Z,6.45
2023-03-30T18:56:07.263Z,4.60
2023-03-30T18:58:41.517Z,5.32
2023-03-30T19:01:13.392Z,3.97
2023-03-30T19:03:42.143Z,4.95
2023-03-30T19:06:16.497Z,5.68
2023-03-30T19:08:46.462Z,5.22
2023-03-30T19:11:23.337Z,3.58
2023-03-30T19:13:51.519Z,3.30
2023-03-30T19:16:18.954Z,3.80
2023-03-30T19:18:49.501Z,5.40
2023-03-30T19:21:17.857Z,5.22
2023-03-30T19:23:45.430Z,9.98
2023-03-30T19:26:12.933Z,4.78
2023-03-30T19:28:40.565Z,5.10
2023-03-30T19:31:13.184Z,4.35
2023-03-30T19:33:45.599Z,4.68
2023-03-30T19:36:18.369Z,6.50
2023-03-30T19:38:45.938Z,8.55
2023-03-30T19:41:15.707Z,7.47
2023-03-30T19:43:50.122Z,5.47
2023-03-30T19:46:17.506Z,16.95
2023-03-30T19:48:44.966Z,7.47
2023-03-30T19:51:16.805Z,6.82
2023-03-30T19:53:46.314Z,5.53
2023-03-30T19:56:14.253Z,4.90
2023-03-30T19:58:41.607Z,16.67
2023-03-30T20:01:09.420Z,13.38
2023-03-30T20:03:36.912Z,9.70
2023-03-30T20:06:11.165Z,11.20
2023-03-30T20:08:40.128Z,9.32
2023-03-30T20:11:10.872Z,6.78
2023-03-30T20:13:38.518Z,8.47
2023-03-30T20:16:11.942Z,5.03
2023-03-30T20:18:47.432Z,2.30
2023-03-30T20:21:14.739Z,3.05
2023-03-30T20:23:44.418Z,4.10
2023-03-30T20:26:12.474Z,1.50
2023-03-30T20:28:40.637Z,3.10
2023-03-30T20:31:11.868Z,2.15
2023-03-30T20:33:39.468Z,1.92
2023-03-30T20:36:07.908Z,3.25
2023-03-30T20:38:39.690Z,2.33
2023-03-30T20:41:11.545Z,1.92
2023-03-30T20:43:55.772Z,2.55
2023-03-30T20:46:35.348Z,2.42
2023-03-30T20:49:05.056Z,2.50
2023-03-30T20:51:40.072Z,3.38
2023-03-30T20:54:07.660Z,2.65
2023-03-30T20:56:34.977Z,3.08
2023-03-30T20:59:02.376Z,1.83
2023-03-30T21:01:34.191Z,1.33
2023-03-30T21:04:02.642Z,2.20
2023-03-30T21:06:31.615Z,2.47
2023-03-30T21:09:01.385Z,4.53
2023-03-30T21:11:30.239Z,3.00
2023-03-30T21:14:01.546Z,2.35
2023-03-30T21:16:31.352Z,2.80
2023-03-30T21:18:58.977Z,3.85
2023-03-30T21:21:28.381Z,2.35
2023-03-30T21:23:58.124Z,3.42
2023-03-30T21:26:26.317Z,2.75
2023-03-30T21:28:53.722Z,2.63
2023-03-30T21:31:21.087Z,2.85
2023-03-30T21:33:48.463Z,2.92
2023-03-30T21:36:16.068Z,3.67
2023-03-30T21:38:43.561Z,3.00
2023-03-30T21:41:16.442Z,5.30
2023-03-30T21:43:45.966Z,4.13
2023-03-30T21:46:16.721Z,4.18
2023-03-30T21:48:48.041Z,4.82
2023-03-30T21:51:21.638Z,4.97
2023-03-30T21:53:51.185Z,3.78
2023-03-30T21:56:22.286Z,4.97
2023-03-30T21:58:50.671Z,7.57
2023-03-30T22:01:20.073Z,5.00
2023-03-30T22:03:47.644Z,3.67
2023-03-30T22:06:17.441Z,3.65
2023-03-30T22:08:47.975Z,5.68
2023-03-30T22:11:17.776Z,6.90
2023-03-30T22:13:47.474Z,8.55
2023-03-30T22:16:22.386Z,6.25
2023-03-30T22:18:50.818Z,8.73
2023-03-30T22:21:29.270Z,8.05
2023-03-30T22:24:00.915Z,6.78
2023-03-30T22:29:00.574Z,7.53
2023-03-30T22:31:28.419Z,6.82
2023-03-30T22:33:56.402Z,5.65
2023-03-30T22:36:26.367Z,5.85
2023-03-30T22:38:58.046Z,5.32
2023-03-30T22:43:56.181Z,6.53
2023-03-30T22:46:25.031Z,8.35
2023-03-30T22:48:55.731Z,6.13
2023-03-30T22:51:27.233Z,5.80
2023-03-30T22:53:58.725Z,5.22
2023-03-30T22:56:29.531Z,6.53
2023-03-30T22:58:57.274Z,4.20
2023-03-30T23:01:24.809Z,4.40
2023-03-30T23:03:53.360Z,4.57
2023-03-30T23:06:21.515Z,3.95
2023-03-30T23:08:49.218Z,4.95
2023-03-30T23:11:17.082Z,4.10
2023-03-30T23:13:44.497Z,6.47
2023-03-30T23:16:11.809Z,4.13
2023-03-30T23:18:39.704Z,3.05
2023-03-30T23:21:11.286Z,6.35
2023-03-30T23:26:09.144Z,4.32
2023-03-30T23:28:42.035Z,5.22
2023-03-30T23:31:12.325Z,4.55
2023-03-30T23:33:41.105Z,4.72
2023-03-30T23:36:10.091Z,3.25
2023-03-30T23:38:42.991Z,5.03
2023-03-30T23:41:13.496Z,6.50
2023-03-30T23:43:43.647Z,6.78
2023-03-30T23:46:11.691Z,5.15
2023-03-30T23:48:39.870Z,6.07
2023-03-30T23:51:07.835Z,5.68
2023-03-30T23:53:39.888Z,9.20
2023-03-30T23:56:12.974Z,5.97
2023-03-30T23:58:41.138Z,5.07
